createdAt,value
2023-05-19T00:00:48.569Z,16.35
2023-05-19T00:03:16.940Z,16.37
2023-05-19T00:05:43.483Z,16.37
2023-05-19T00:08:09.994Z,16.34
2023-05-19T00:10:36.438Z,16.18
2023-05-19T00:13:02.903Z,16.27
2023-05-19T00:15:29.347Z,16.15
2023-05-19T00:17:55.938Z,16.05
2023-05-19T00:20:22.385Z,16.07
2023-05-19T00:22:48.879Z,16.14
2023-05-19T00:25:15.336Z,16.11
2023-05-19T00:27:41.862Z,16.06
2023-05-19T00:30:08.298Z,16.05
2023-05-19T00:32:34.842Z,15.99
2023-05-19T00:35:01.339Z,15.91
2023-05-19T00:37:27.765Z,15.97
2023-05-19T00:39:54.188Z,16.07
2023-05-19T00:42:20.667Z,15.96
2023-05-19T00:44:47.088Z,15.99
2023-05-19T00:47:13.513Z,15.94
2023-05-19T00:49:39.912Z,15.72
2023-05-19T00:52:06.379Z,15.36
2023-05-19T00:54:32.816Z,15.61
2023-05-19T00:56:59.259Z,15.65
2023-05-19T00:59:25.654Z,15.79
2023-05-19T01:01:52.180Z,15.71
2023-05-19T01:04:18.645Z,15.66
2023-05-19T01:06:45.071Z,15.71
2023-05-19T01:09:11.598Z,15.80
2023-05-19T01:11:37.987Z,15.84
2023-05-19T01:14:04.425Z,15.78
2023-05-19T01:16:30.975Z,15.82
2023-05-19T01:18:57.481Z,15.74
2023-05-19T01:21:24.015Z,15.71
2023-05-19T01:23:50.453Z,15.70
2023-05-19T01:26:16.901Z,15.69
2023-05-19T01:28:43.385Z,15.62
2023-05-19T01:31:09.895Z,15.62
2023-05-19T01:33:36.341Z,15.67
2023-05-19T01:36:02.778Z,15.70
2023-05-19T01:38:29.201Z,15.66
2023-05-19T01:40:55.655Z,15.65
2023-05-19T01:43:22.059Z,15.61
2023-05-19T01:45:48.526Z,15.62
2023-05-19T01:48:15.014Z,15.67
2023-05-19T01:50:41.580Z,15.66
2023-05-19T01:53:08.006Z,15.64
2023-05-19T01:55:34.413Z,15.57
2023-05-19T01:58:00.851Z,15.54
2023-05-19T02:00:27.299Z,15.59
2023-05-19T02:02:53.788Z,15.66
2023-05-19T02:05:20.191Z,15.59
2023-05-19T02:07:46.671Z,15.39
2023-05-19T02:10:13.184Z,15.60
2023-05-19T02:12:39.586Z,15.60
2023-05-19T02:15:06.006Z,15.48
2023-05-19T02:17:32.456Z,15.59
2023-05-19T02:19:58.856Z,15.53
2023-05-19T02:22:25.266Z,15.44
2023-05-19T02:24:51.784Z,15.45
2023-05-19T02:27:18.375Z,15.45
2023-05-19T02:29:44.816Z,15.51
2023-05-19T02:32:11.352Z,15.55
2023-05-19T02:34:37.882Z,15.39
2023-05-19T02:37:04.445Z,15.48
2023-05-19T02:39:30.867Z,15.50
2023-05-19T02:41:57.390Z,15.60
2023-05-19T02:44:23.816Z,15.59
2023-05-19T02:46:50.506Z,15.55
2023-05-19T02:49:17.041Z,15.52
2023-05-19T02:51:43.509Z,15.46
2023-05-19T02:54:09.934Z,15.45
2023-05-19T02:56:36.399Z,15.40
2023-05-19T02:59:02.874Z,15.36
2023-05-19T03:01:29.354Z,15.35
2023-05-19T03:03:55.943Z,15.48
2023-05-19T03:06:22.437Z,15.31
2023-05-19T03:08:48.882Z,15.42
2023-05-19T03:11:15.313Z,15.44
2023-05-19T03:13:41.724Z,15.44
2023-05-19T03:16:08.398Z,15.49
2023-05-19T03:18:34.936Z,15.37
2023-05-19T03:21:01.387Z,15.39
2023-05-19T03:23:27.838Z,15.31
2023-05-19T03:25:54.262Z,15.45
2023-05-19T03:28:20.693Z,15.41
2023-05-19T03:30:47.132Z,15.40
2023-05-19T03:33:13.636Z,15.57
2023-05-19T03:35:40.154Z,15.42
2023-05-19T03:38:06.593Z,15.40
2023-05-19T03:40:33.329Z,15.49
2023-05-19T03:43:00.113Z,15.40
2023-05-19T03:45:26.566Z,15.45
2023-05-19T03:47:53.058Z,15.43
2023-05-19T03:50:19.521Z,15.45
2023-05-19T03:52:45.932Z,15.37
2023-05-19T03:55:12.356Z,15.31
2023-05-19T03:57:38.784Z,15.30
2023-05-19T04:00:05.187Z,15.29
2023-05-19T04:02:31.727Z,15.26
2023-05-19T04:04:58.247Z,15.29
2023-05-19T04:07:24.671Z,15.28
2023-05-19T04:09:51.114Z,15.18
2023-05-19T04:12:17.538Z,15.26
2023-05-19T04:14:44.129Z,15.27
2023-05-19T04:17:10.560Z,15.27
2023-05-19T04:19:36.994Z,15.27
2023-05-19T04:22:03.467Z,15.42
2023-05-19T04:24:29.897Z,15.38
2023-05-19T04:26:56.297Z,15.31
2023-05-19T04:29:22.715Z,15.29
2023-05-19T04:31:49.162Z,15.32
2023-05-19T04:34:15.563Z,15.32
2023-05-19T04:36:41.956Z,15.38
2023-05-19T04:39:08.471Z,15.40
2023-05-19T04:41:34.925Z,15.35
2023-05-19T04:44:01.367Z,15.43
2023-05-19T04:46:27.869Z,15.29
2023-05-19T04:48:54.329Z,15.28
2023-05-19T04:51:20.803Z,15.39
2023-05-19T04:53:47.289Z,15.22
2023-05-19T04:56:13.782Z,15.32
2023-05-19T04:58:41.990Z,15.35
2023-05-19T05:01:08.503Z,15.51
2023-05-19T05:03:35.106Z,15.50
2023-05-19T05:06:01.581Z,15.58
2023-05-19T05:08:27.989Z,15.59
2023-05-19T05:10:54.409Z,15.60
2023-05-19T05:13:20.810Z,15.52
2023-05-19T05:15:47.658Z,15.56
2023-05-19T05:18:14.061Z,15.53
2023-05-19T05:20:40.505Z,15.58
2023-05-19T05:23:06.912Z,15.65
2023-05-19T05:25:33.797Z,15.55
2023-05-19T05:28:00.449Z,15.62
2023-05-19T05:30:26.897Z,15.77
2023-05-19T05:32:53.636Z,15.79
2023-05-19T05:35:20.167Z,15.82
2023-05-19T05:37:46.609Z,15.93
2023-05-19T05:40:13.047Z,15.98
2023-05-19T05:42:39.475Z,16.07
2023-05-19T05:45:05.880Z,16.17
2023-05-19T05:47:32.399Z,16.32
2023-05-19T05:49:58.918Z,16.31
2023-05-19T05:52:25.380Z,16.37
2023-05-19T05:54:51.782Z,16.51
2023-05-19T05:57:18.233Z,16.56
2023-05-19T05:59:44.728Z,16.58
2023-05-19T06:02:11.293Z,16.33
2023-05-19T06:04:37.821Z,16.34
2023-05-19T06:07:04.280Z,16.34
2023-05-19T06:09:30.719Z,16.30
2023-05-19T06:11:57.197Z,16.37
2023-05-19T06:14:23.613Z,16.34
2023-05-19T06:16:50.019Z,16.50
2023-05-19T06:19:16.475Z,16.45
2023-05-19T06:21:43.249Z,16.49
2023-05-19T06:24:09.920Z,16.53
2023-05-19T06:26:36.476Z,16.48
2023-05-19T06:29:02.998Z,16.41
2023-05-19T06:31:29.518Z,16.56
2023-05-19T06:33:56.019Z,16.44
2023-05-19T06:36:22.524Z,16.67
2023-05-19T06:38:48.952Z,16.70
2023-05-19T06:41:15.399Z,16.77
2023-05-19T06:43:41.894Z,16.78
2023-05-19T06:46:08.314Z,16.91
2023-05-19T06:48:34.802Z,16.96
2023-05-19T06:51:01.275Z,17.06
2023-05-19T06:53:27.753Z,17.02
2023-05-19T06:55:59.705Z,17.18
2023-05-19T06:58:26.544Z,17.36
2023-05-19T07:00:52.990Z,17.38
2023-05-19T07:03:19.496Z,17.16
2023-05-19T07:05:46.185Z,17.15
2023-05-19T07:08:12.673Z,17.13
2023-05-19T07:10:39.121Z,17.23
2023-05-19T07:13:05.578Z,17.22
2023-05-19T07:15:31.998Z,16.92
2023-05-19T07:17:58.586Z,17.01
2023-05-19T07:20:25.036Z,17.09
2023-05-19T07:22:51.508Z,17.26
2023-05-19T07:25:17.978Z,17.09
2023-05-19T07:27:44.465Z,17.13
2023-05-19T07:30:11.013Z,17.15
2023-05-19T07:32:37.678Z,17.17
2023-05-19T07:35:04.162Z,17.30
2023-05-19T07:37:30.625Z,17.08
2023-05-19T07:39:57.062Z,17.38
2023-05-19T07:42:23.526Z,17.42
2023-05-19T07:44:49.976Z,17.52
2023-05-19T07:47:16.449Z,17.64
2023-05-19T07:49:42.899Z,17.70
2023-05-19T07:52:09.330Z,17.76
2023-05-19T07:54:35.749Z,17.84
2023-05-19T07:57:02.194Z,18.03
2023-05-19T07:59:28.618Z,17.89
2023-05-19T08:01:55.046Z,18.22
2023-05-19T08:04:21.727Z,18.34
2023-05-19T08:06:48.194Z,18.21
2023-05-19T08:09:14.663Z,18.00
2023-05-19T08:11:41.088Z,18.32
2023-05-19T08:14:07.599Z,18.38
2023-05-19T08:16:34.152Z,18.33
2023-05-19T08:19:00.689Z,18.19
2023-05-19T08:21:27.136Z,18.00
2023-05-19T08:23:53.567Z,17.89
2023-05-19T08:26:20.039Z,18.07
2023-05-19T08:28:46.711Z,18.15
2023-05-19T08:31:13.265Z,17.98
2023-05-19T08:33:39.887Z,17.77
2023-05-19T08:36:06.339Z,17.91
2023-05-19T08:38:32.783Z,17.95
2023-05-19T08:40:59.243Z,18.08
2023-05-19T08:43:25.670Z,18.05
2023-05-19T08:45:52.106Z,18.12
2023-05-19T08:48:18.604Z,18.19
2023-05-19T08:50:45.034Z,17.96
2023-05-19T08:53:21.375Z,18.19
2023-05-19T08:55:58.167Z,18.62
2023-05-19T08:58:25.432Z,18.67
2023-05-19T09:00:53.146Z,18.89
2023-05-19T09:05:49.477Z,18.80
2023-05-19T09:08:15.925Z,18.95
2023-05-19T09:10:42.406Z,19.09
2023-05-19T09:13:08.915Z,19.06
2023-05-19T09:15:35.556Z,19.12
2023-05-19T09:18:02.192Z,19.13
2023-05-19T09:20:28.744Z,19.33
2023-05-19T09:22:55.196Z,19.35
2023-05-19T09:25:21.697Z,19.13
2023-05-19T09:27:48.171Z,19.03
2023-05-19T09:30:14.624Z,19.02
2023-05-19T09:32:41.118Z,19.11
2023-05-19T09:35:07.561Z,19.07
2023-05-19T09:37:34.005Z,19.15
2023-05-19T09:40:00.527Z,19.25
2023-05-19T09:42:27.022Z,19.48
2023-05-19T09:44:53.466Z,19.33
2023-05-19T09:47:20.029Z,19.28
2023-05-19T09:49:46.516Z,18.81
2023-05-19T09:52:12.952Z,19.00
2023-05-19T09:54:39.430Z,19.27
2023-05-19T09:57:07.694Z,18.75
2023-05-19T09:59:34.938Z,18.95
2023-05-19T10:02:01.429Z,18.67
2023-05-19T10:04:27.967Z,18.73
2023-05-19T10:06:54.706Z,18.55
2023-05-19T10:09:21.427Z,18.61
2023-05-19T10:11:47.841Z,18.70
2023-05-19T10:14:14.383Z,18.22
2023-05-19T10:16:40.788Z,18.60
2023-05-19T10:19:07.483Z,18.66
2023-05-19T10:21:34.022Z,18.79
2023-05-19T10:24:00.457Z,19.18
2023-05-19T10:26:26.885Z,19.61
2023-05-19T10:28:53.392Z,19.74
2023-05-19T10:31:19.799Z,19.65
2023-05-19T10:33:46.341Z,19.89
2023-05-19T10:36:12.769Z,19.90
2023-05-19T10:38:39.180Z,20.15
2023-05-19T10:41:05.630Z,20.35
2023-05-19T10:43:32.088Z,20.61
2023-05-19T10:45:58.665Z,20.69
2023-05-19T10:48:25.107Z,20.90
2023-05-19T10:50:51.543Z,21.26
2023-05-19T10:53:17.994Z,21.42
2023-05-19T10:55:44.757Z,21.66
2023-05-19T10:58:11.680Z,21.90
2023-05-19T11:00:38.243Z,21.96
2023-05-19T11:03:04.806Z,22.28
2023-05-19T11:05:31.718Z,22.01
2023-05-19T11:07:58.357Z,22.26
2023-05-19T11:10:24.783Z,22.27
2023-05-19T11:15:18.425Z,21.78
2023-05-19T11:17:44.951Z,21.98
2023-05-19T11:20:11.369Z,21.95
2023-05-19T11:22:37.799Z,22.03
2023-05-19T11:25:04.234Z,21.93
2023-05-19T11:27:30.690Z,21.65
2023-05-19T11:29:57.158Z,21.80
2023-05-19T11:32:23.648Z,21.74
2023-05-19T11:34:50.500Z,21.99
2023-05-19T11:37:16.945Z,22.01
2023-05-19T11:39:43.367Z,21.91
2023-05-19T11:42:09.823Z,21.52
2023-05-19T11:44:36.334Z,21.83
2023-05-19T11:47:02.974Z,21.49
2023-05-19T11:49:29.600Z,21.35
2023-05-19T11:51:56.020Z,21.67
2023-05-19T11:54:22.461Z,21.72
2023-05-19T11:56:48.916Z,21.76
2023-05-19T11:59:15.415Z,21.71
2023-05-19T12:01:41.949Z,22.13
2023-05-19T12:04:08.419Z,21.92
2023-05-19T12:06:34.853Z,22.05
2023-05-19T12:09:01.375Z,21.69
2023-05-19T12:11:27.817Z,21.49
2023-05-19T12:13:54.291Z,21.08
2023-05-19T12:16:20.771Z,21.81
2023-05-19T12:18:47.388Z,21.68
2023-05-19T12:21:13.878Z,21.32
2023-05-19T12:23:40.292Z,21.84
2023-05-19T12:26:06.715Z,21.57
2023-05-19T12:28:33.404Z,21.62
2023-05-19T12:30:59.839Z,21.43
2023-05-19T12:33:26.242Z,21.91
2023-05-19T12:35:52.666Z,22.18
2023-05-19T12:38:19.097Z,22.59
2023-05-19T12:40:45.587Z,22.65
2023-05-19T12:43:12.055Z,23.15
2023-05-19T12:45:38.795Z,22.56
2023-05-19T12:48:05.617Z,22.91
2023-05-19T12:50:32.189Z,23.02
2023-05-19T12:52:58.774Z,22.89
2023-05-19T12:55:25.239Z,22.62
2023-05-19T12:57:51.690Z,22.33
2023-05-19T13:00:18.172Z,22.32
2023-05-19T13:02:44.699Z,22.34
2023-05-19T13:05:11.176Z,22.34
2023-05-19T13:10:04.087Z,22.30
2023-05-19T13:12:30.604Z,22.51
2023-05-19T13:14:57.067Z,22.36
2023-05-19T13:17:23.504Z,22.77
2023-05-19T13:19:50.032Z,22.12
2023-05-19T13:22:16.525Z,21.79
2023-05-19T13:24:43.054Z,22.41
2023-05-19T13:27:09.545Z,22.71
2023-05-19T13:29:35.969Z,23.15
2023-05-19T13:32:02.541Z,22.83
2023-05-19T13:34:29.017Z,22.85
2023-05-19T13:36:55.573Z,23.18
2023-05-19T13:39:22.180Z,23.26
2023-05-19T13:41:48.683Z,23.41
2023-05-19T13:44:15.301Z,23.60
2023-05-19T13:46:45.520Z,23.59
2023-05-19T13:49:13.356Z,23.78
2023-05-19T13:51:39.790Z,23.71
2023-05-19T13:54:06.213Z,23.73
2023-05-19T13:56:32.838Z,23.60
2023-05-19T13:58:59.260Z,23.83
2023-05-19T14:01:25.792Z,23.05
2023-05-19T14:03:52.432Z,23.06
2023-05-19T14:06:19.148Z,23.05
2023-05-19T14:08:45.590Z,22.98
2023-05-19T14:11:12.145Z,23.09
2023-05-19T14:13:42.594Z,22.91
2023-05-19T14:16:09.841Z,23.07
2023-05-19T14:18:36.366Z,23.33
2023-05-19T14:21:02.913Z,23.37
2023-05-19T14:23:29.359Z,23.47
2023-05-19T14:25:55.804Z,23.47
2023-05-19T14:28:22.264Z,23.82
2023-05-19T14:30:48.915Z,24.07
2023-05-19T14:33:15.510Z,24.11
2023-05-19T14:35:41.972Z,24.07
2023-05-19T14:38:08.428Z,24.43
2023-05-19T14:40:35.348Z,24.03
2023-05-19T14:43:01.901Z,24.30
2023-05-19T14:45:28.367Z,23.88
2023-05-19T14:47:55.037Z,24.37
2023-05-19T14:50:21.512Z,24.35
2023-05-19T14:52:48.189Z,24.52
2023-05-19T14:55:14.670Z,24.48
2023-05-19T14:57:41.135Z,24.28
2023-05-19T15:00:07.582Z,24.31
2023-05-19T15:02:34.066Z,24.21
2023-05-19T15:05:00.520Z,24.00
2023-05-19T15:07:27.056Z,23.92
2023-05-19T15:09:53.474Z,23.78
2023-05-19T15:12:20.098Z,23.97
2023-05-19T15:14:46.791Z,23.95
2023-05-19T15:17:13.372Z,23.97
2023-05-19T15:19:39.949Z,23.79
2023-05-19T15:22:06.529Z,23.80
2023-05-19T15:24:32.975Z,23.43
2023-05-19T15:26:59.480Z,23.10
2023-05-19T15:29:25.921Z,22.77
2023-05-19T15:31:52.365Z,22.77
2023-05-19T15:34:18.853Z,22.78
2023-05-19T15:36:45.299Z,22.30
2023-05-19T15:39:11.755Z,22.46
2023-05-19T15:41:38.247Z,22.55
2023-05-19T15:44:04.690Z,22.01
2023-05-19T15:46:31.182Z,22.25
2023-05-19T15:48:57.753Z,22.42
2023-05-19T15:51:24.192Z,22.60
2023-05-19T15:53:50.666Z,22.09
2023-05-19T15:56:17.221Z,21.98
2023-05-19T15:58:43.668Z,22.17
2023-05-19T16:01:10.182Z,22.12
2023-05-19T16:03:36.736Z,22.37
2023-05-19T16:06:03.225Z,22.41
2023-05-19T16:08:29.798Z,22.22
2023-05-19T16:10:56.235Z,22.18
2023-05-19T16:13:23.047Z,22.12
2023-05-19T16:15:49.599Z,22.08
2023-05-19T16:18:16.106Z,22.09
2023-05-19T16:20:42.576Z,21.85
2023-05-19T16:23:09.143Z,21.90
2023-05-19T16:25:35.565Z,22.02
2023-05-19T16:28:01.986Z,22.07
2023-05-19T16:30:28.611Z,21.85
2023-05-19T16:32:55.080Z,21.49
2023-05-19T16:35:21.643Z,21.39
2023-05-19T16:37:48.196Z,21.41
2023-05-19T16:40:14.678Z,21.20
2023-05-19T16:42:41.186Z,20.89
2023-05-19T16:45:07.677Z,20.78
2023-05-19T16:47:34.204Z,20.72
2023-05-19T16:50:00.669Z,20.62
2023-05-19T16:52:27.162Z,20.45
2023-05-19T16:54:53.705Z,20.39
2023-05-19T16:57:20.197Z,20.52
2023-05-19T16:59:46.636Z,20.44
2023-05-19T17:02:13.187Z,20.26
2023-05-19T17:04:39.734Z,19.92
2023-05-19T17:07:06.191Z,19.72
2023-05-19T17:09:32.729Z,19.60
2023-05-19T17:11:59.208Z,19.57
2023-05-19T17:14:25.654Z,19.28
2023-05-19T17:16:52.164Z,19.42
2023-05-19T17:19:18.687Z,19.28
2023-05-19T17:21:45.126Z,19.56
2023-05-19T17:24:11.553Z,19.11
2023-05-19T17:26:38.022Z,19.02
2023-05-19T17:29:04.476Z,19.13
2023-05-19T17:31:30.865Z,18.99
2023-05-19T17:33:57.356Z,18.77
2023-05-19T17:36:23.810Z,18.84
2023-05-19T17:38:50.320Z,18.61
2023-05-19T17:41:16.759Z,18.78
2023-05-19T17:43:43.213Z,18.72
2023-05-19T17:46:09.738Z,18.79
2023-05-19T17:48:36.315Z,18.47
2023-05-19T17:51:05.731Z,18.75
2023-05-19T17:53:32.380Z,18.77
2023-05-19T17:55:58.854Z,18.77
2023-05-19T17:58:25.334Z,18.65
2023-05-19T18:00:51.788Z,18.87
2023-05-19T18:03:18.407Z,18.84
2023-05-19T18:05:45.018Z,18.62
2023-05-19T18:08:11.621Z,18.74
2023-05-19T18:10:38.102Z,18.77
2023-05-19T18:13:04.575Z,18.74
2023-05-19T18:15:31.087Z,18.66
2023-05-19T18:17:57.573Z,18.55
2023-05-19T18:20:24.052Z,18.47
2023-05-19T18:22:50.472Z,18.63
2023-05-19T18:25:16.903Z,18.37
2023-05-19T18:27:43.316Z,18.46
2023-05-19T18:30:09.739Z,18.58
2023-05-19T18:32:36.232Z,18.48
2023-05-19T18:35:02.731Z,18.51
2023-05-19T18:37:29.385Z,18.46
2023-05-19T18:39:55.906Z,18.40
2023-05-19T18:42:22.354Z,18.42
2023-05-19T18:44:48.823Z,18.54
2023-05-19T18:47:15.355Z,18.54
2023-05-19T18:49:41.861Z,18.58
2023-05-19T18:52:08.310Z,18.42
2023-05-19T18:54:34.799Z,18.38
2023-05-19T18:57:01.224Z,18.46
2023-05-19T18:59:27.749Z,18.49
2023-05-19T19:01:54.247Z,18.42
2023-05-19T19:04:20.795Z,18.13
2023-05-19T19:06:47.269Z,18.11
2023-05-19T19:09:13.746Z,18.24
2023-05-19T19:11:40.220Z,18.03
2023-05-19T19:14:06.854Z,17.99
2023-05-19T19:16:33.448Z,17.77
2023-05-19T19:19:00.014Z,17.61
2023-05-19T19:21:26.682Z,17.60
2023-05-19T19:23:53.102Z,17.46
2023-05-19T19:26:19.539Z,17.46
2023-05-19T19:28:46.205Z,17.49
2023-05-19T19:31:12.652Z,17.37
2023-05-19T19:33:39.163Z,17.63
2023-05-19T19:36:05.616Z,17.77
2023-05-19T19:38:32.070Z,17.46
2023-05-19T19:40:58.583Z,17.66
2023-05-19T19:43:25.202Z,17.81
2023-05-19T19:45:51.614Z,17.92
2023-05-19T19:48:18.117Z,17.75
2023-05-19T19:50:44.570Z,17.89
2023-05-19T19:53:11.278Z,17.94
2023-05-19T19:55:37.931Z,17.77
2023-05-19T19:58:04.374Z,17.95
2023-05-19T20:00:30.943Z,17.95
2023-05-19T20:03:05.152Z,18.14
2023-05-19T20:05:32.182Z,17.99
2023-05-19T20:07:58.645Z,18.13
2023-05-19T20:10:25.166Z,17.72
2023-05-19T20:12:51.897Z,17.93
2023-05-19T20:15:18.481Z,17.66
2023-05-19T20:17:44.964Z,17.80
2023-05-19T20:20:11.445Z,17.72
2023-05-19T20:22:37.912Z,17.74
2023-05-19T20:25:04.407Z,17.87
2023-05-19T20:27:30.823Z,17.66
2023-05-19T20:29:57.332Z,17.86
2023-05-19T20:32:23.834Z,17.73
2023-05-19T20:34:50.328Z,17.77
2023-05-19T20:37:16.792Z,17.95
2023-05-19T20:39:43.355Z,17.79
2023-05-19T20:42:09.752Z,17.83
2023-05-19T20:44:36.235Z,17.79
2023-05-19T20:47:02.670Z,17.87
2023-05-19T20:49:29.090Z,17.71
2023-05-19T20:51:55.548Z,17.79
2023-05-19T20:54:22.079Z,17.75
2023-05-19T20:56:48.681Z,17.73
2023-05-19T20:59:15.135Z,17.78
2023-05-19T21:01:41.623Z,17.54
2023-05-19T21:04:08.263Z,17.51
2023-05-19T21:06:34.915Z,17.34
2023-05-19T21:09:01.391Z,17.14
2023-05-19T21:11:27.808Z,17.51
2023-05-19T21:13:54.284Z,17.18
2023-05-19T21:16:20.777Z,17.40
2023-05-19T21:18:47.727Z,17.33
2023-05-19T21:21:14.343Z,17.31
2023-05-19T21:23:40.836Z,17.40
2023-05-19T21:26:07.469Z,17.36
2023-05-19T21:28:33.976Z,17.30
2023-05-19T21:31:00.452Z,17.52
2023-05-19T21:33:27.065Z,17.29
2023-05-19T21:35:53.519Z,17.18
2023-05-19T21:38:23.943Z,17.37
2023-05-19T21:40:50.832Z,17.50
2023-05-19T21:43:17.295Z,17.52
2023-05-19T21:45:43.755Z,17.33
2023-05-19T21:48:10.246Z,17.35
2023-05-19T21:50:36.821Z,17.27
2023-05-19T21:53:03.263Z,17.32
2023-05-19T21:55:29.814Z,17.41
2023-05-19T21:57:56.338Z,17.14
2023-05-19T22:00:22.825Z,17.03
2023-05-19T22:02:49.398Z,17.35
2023-05-19T22:05:16.099Z,17.45
2023-05-19T22:07:42.528Z,17.27
2023-05-19T22:10:08.938Z,17.52
2023-05-19T22:12:35.341Z,17.53
2023-05-19T22:15:01.775Z,17.47
2023-05-19T22:17:28.231Z,17.59
2023-05-19T22:19:54.720Z,17.61
2023-05-19T22:22:21.132Z,17.63
2023-05-19T22:24:47.656Z,17.56
2023-05-19T22:27:14.282Z,17.53
2023-05-19T22:29:40.709Z,17.50
2023-05-19T22:32:07.159Z,17.42
2023-05-19T22:34:33.668Z,17.50
2023-05-19T22:37:00.129Z,17.52
2023-05-19T22:39:26.570Z,17.53
2023-05-19T22:41:53.042Z,17.45
2023-05-19T22:44:19.566Z,17.35
2023-05-19T22:46:45.991Z,17.31
2023-05-19T22:49:12.429Z,17.29
2023-05-19T22:51:39.050Z,16.93
2023-05-19T22:54:05.504Z,17.05
2023-05-19T22:56:31.944Z,16.82
2023-05-19T22:58:58.407Z,17.00
2023-05-19T23:01:24.947Z,16.87
2023-05-19T23:03:51.500Z,17.04
2023-05-19T23:06:18.012Z,17.15
2023-05-19T23:08:44.872Z,17.07
2023-05-19T23:11:11.950Z,17.01
2023-05-19T23:13:38.421Z,17.17
2023-05-19T23:16:04.825Z,17.08
2023-05-19T23:18:31.231Z,17.03
2023-05-19T23:20:57.674Z,16.92
2023-05-19T23:23:24.195Z,16.84
2023-05-19T23:25:50.652Z,16.83
2023-05-19T23:28:17.093Z,17.00
2023-05-19T23:30:43.534Z,17.08
2023-05-19T23:33:10.106Z,17.10
2023-05-19T23:35:36.722Z,17.21
2023-05-19T23:38:03.232Z,17.17
2023-05-19T23:40:29.715Z,17.23
2023-05-19T23:42:56.285Z,17.20
2023-05-19T23:45:22.855Z,17.21
2023-05-19T23:47:49.357Z,17.32
2023-05-19T23:50:15.828Z,17.21
2023-05-19T23:52:42.244Z,17.28
2023-05-19T23:55:08.810Z,17.31
2023-05-19T23:57:35.233Z,17.26
